Time;durP1;ratioP1;P1;durP2;ratioP2;P2;SDS_P1;SDS_P2;PMS_P1;PMS_P2;Temp;Humidity;BMP_temperature;BMP_pressure;BME280_temperature;BME280_humidity;BME280_pressure;Samples;Min_cycle;Max_cycle;Signal;HPM_P1;HPM_P2
2022/10/03 00:00:18;;;;;;;4.83;2.20;;;15.10;99.00;;;;;;4918074;29;20437;-75
2022/10/03 00:03:12;;;;;;;3.50;2.23;;;15.10;99.00;;;;;;4913479;29;20460;-74
2022/10/03 00:05:45;;;;;;;3.80;2.30;;;15.10;99.00;;;;;;4914396;29;20486;-75
2022/10/03 00:08:25;;;;;;;6.93;2.83;;;15.00;98.90;;;;;;4915684;29;20504;-75
2022/10/03 00:11:10;;;;;;;3.10;2.20;;;15.00;98.80;;;;;;4926790;29;20496;-74
2022/10/03 00:14:09;;;;;;;5.00;2.90;;;15.00;98.80;;;;;;4914323;29;20451;-75
2022/10/03 00:17:09;;;;;;;4.40;2.50;;;15.00;98.80;;;;;;4910446;29;20448;-75
2022/10/03 00:20:03;;;;;;;6.00;2.70;;;15.00;98.70;;;;;;4914472;29;20439;-75
2022/10/03 00:23:02;;;;;;;8.33;2.37;;;15.00;98.70;;;;;;4898687;29;20445;-75
2022/10/03 00:25:50;;;;;;;3.60;2.10;;;15.00;98.70;;;;;;4898638;29;21012;-74
2022/10/03 00:28:25;;;;;;;5.83;2.70;;;15.00;98.70;;;;;;4914993;29;20428;-75
2022/10/03 00:31:07;;;;;;;5.40;2.10;;;14.90;98.60;;;;;;4917554;29;20515;-75
2022/10/03 00:34:04;;;;;;;9.40;2.73;;;14.90;98.80;;;;;;4914416;29;20448;-75
2022/10/03 00:36:49;;;;;;;3.50;2.07;;;14.90;98.60;;;;;;4914597;29;20529;-74
2022/10/03 00:39:27;;;;;;;7.73;2.50;;;14.90;98.60;;;;;;4895173;29;20463;-75
2022/10/03 00:42:06;;;;;;;8.90;2.43;;;14.90;98.60;;;;;;4929574;29;20492;-75
2022/10/03 00:44:42;;;;;;;5.03;2.20;;;14.90;98.60;;;;;;4930225;29;20473;-74
2022/10/03 00:47:23;;;;;;;4.97;2.30;;;14.90;98.60;;;;;;4915300;29;20444;-75
2022/10/03 00:50:03;;;;;;;4.53;2.30;;;14.80;98.50;;;;;;4914454;29;20918;-75
2022/10/03 00:52:43;;;;;;;5.67;2.43;;;14.80;98.50;;;;;;4914864;29;20496;-75
2022/10/03 00:55:49;;;;;;;5.07;2.30;;;14.80;98.40;;;;;;4898781;29;20444;-75
2022/10/03 00:58:39;;;;;;;4.93;2.63;;;14.80;98.40;;;;;;4914489;29;20465;-75
2022/10/03 01:01:29;;;;;;;5.23;2.87;;;14.80;98.30;;;;;;4914485;29;20418;-75
2022/10/03 01:04:07;;;;;;;7.13;2.70;;;14.80;98.30;;;;;;4898780;29;20457;-75
2022/10/03 01:06:57;;;;;;;4.40;2.50;;;14.80;98.30;;;;;;4919037;29;20453;-75
2022/10/03 01:09:28;;;;;;;3.80;2.60;;;14.70;98.30;;;;;;4917700;29;20485;-74
2022/10/03 01:12:19;;;;;;;4.90;2.40;;;14.70;98.20;;;;;;4917869;29;20444;-75
2022/10/03 01:14:54;;;;;;;3.90;2.00;;;14.70;98.20;;;;;;4918326;29;20509;-75
2022/10/03 01:17:26;;;;;;;3.40;2.23;;;14.70;98.20;;;;;;4917904;29;20464;-75
2022/10/03 01:20:17;;;;;;;4.70;2.30;;;14.70;98.20;;;;;;4917420;29;20479;-74
2022/10/03 01:23:04;;;;;;;4.70;2.40;;;14.70;98.10;;;;;;4902063;29;20498;-75
2022/10/03 01:25:58;;;;;;;4.60;2.60;;;14.70;98.10;;;;;;4918788;29;20593;-75
2022/10/03 01:31:44;;;;;;;5.10;2.50;;;14.60;98.00;;;;;;4898680;29;20492;-74
2022/10/03 01:34:37;;;;;;;6.83;2.80;;;14.60;97.90;;;;;;4902252;29;20433;-74
2022/10/03 01:37:22;;;;;;;4.43;2.77;;;14.60;97.90;;;;;;4917413;29;20464;-75
2022/10/03 01:40:28;;;;;;;6.53;2.20;;;14.60;97.90;;;;;;4917062;29;20432;-75
2022/10/03 01:43:03;;;;;;;2.83;2.20;;;14.60;97.90;;;;;;4900903;29;20476;-75
2022/10/03 01:45:48;;;;;;;3.70;2.00;;;14.60;97.90;;;;;;4917247;29;20461;-75
2022/10/03 01:48:20;;;;;;;4.97;2.27;;;14.60;97.80;;;;;;4916840;29;20464;-75
2022/10/03 01:51:01;;;;;;;6.13;2.80;;;14.60;97.80;;;;;;4916869;29;20460;-75
2022/10/03 01:53:29;;;;;;;4.03;2.50;;;14.50;97.80;;;;;;4900412;29;20467;-74
2022/10/03 01:56:36;;;;;;;4.53;2.50;;;14.50;97.80;;;;;;4917254;29;20500;-75
2022/10/03 01:59:17;;;;;;;5.93;2.63;;;14.50;97.70;;;;;;4909938;29;20837;-74
2022/10/03 02:01:52;;;;;;;3.27;2.07;;;14.50;97.70;;;;;;4916804;29;20429;-74
2022/10/03 02:04:43;;;;;;;4.17;2.93;;;14.50;97.60;;;;;;4896944;29;20464;-75
2022/10/03 02:07:20;;;;;;;5.97;2.80;;;14.50;97.60;;;;;;4917272;29;20436;-75
2022/10/03 02:10:11;;;;;;;7.93;2.80;;;14.50;97.60;;;;;;4916274;29;20563;-74
2022/10/03 02:12:55;;;;;;;5.03;2.47;;;14.50;97.60;;;;;;4916749;29;20484;-74
2022/10/03 02:15:34;;;;;;;4.97;2.73;;;14.50;97.50;;;;;;4917950;29;20510;-74
2022/10/03 02:18:22;;;;;;;4.73;3.37;;;14.50;97.50;;;;;;4916029;29;20416;-75
2022/10/03 02:20:59;;;;;;;8.17;3.00;;;14.40;97.50;;;;;;4916890;29;20504;-74
2022/10/03 02:23:32;;;;;;;4.40;3.00;;;14.40;97.50;;;;;;4901127;29;20434;-75
2022/10/03 02:26:30;;;;;;;7.17;3.03;;;14.40;97.40;;;;;;4901234;29;20970;-74
2022/10/03 02:29:05;;;;;;;5.83;2.77;;;14.40;97.40;;;;;;4915524;29;20549;-75
2022/10/03 02:32:04;;;;;;;8.27;3.20;;;14.40;97.40;;;;;;4900547;29;20471;-75
2022/10/03 02:34:47;;;;;;;4.20;2.67;;;14.40;97.50;;;;;;4917236;29;20445;-75
2022/10/03 02:37:41;;;;;;;3.70;2.50;;;14.40;97.50;;;;;;4900371;29;20823;-75
2022/10/03 02:40:21;;;;;;;4.70;2.53;;;14.30;97.40;;;;;;4894842;29;20449;-75
2022/10/03 02:43:19;;;;;;;6.53;2.60;;;14.30;97.40;;;;;;4900623;29;20458;-75
2022/10/03 02:46:05;;;;;;;4.50;2.37;;;14.30;97.40;;;;;;4915982;29;20460;-75
2022/10/03 02:48:55;;;;;;;8.93;2.40;;;14.30;97.30;;;;;;4916995;29;21002;-75
2022/10/03 02:51:54;;;;;;;5.73;2.67;;;14.30;97.30;;;;;;4899969;29;20524;-74
2022/10/03 02:55:04;;;;;;;3.17;2.33;;;14.30;97.40;;;;;;4917216;29;20890;-75
2022/10/03 02:57:54;;;;;;;4.03;2.43;;;14.30;97.40;;;;;;4917176;29;20452;-75
2022/10/03 03:00:53;;;;;;;14.27;3.20;;;14.20;97.30;;;;;;4915965;29;20467;-75
2022/10/03 03:03:37;;;;;;;3.60;2.83;;;14.20;97.30;;;;;;4915765;29;20980;-75
2022/10/03 03:06:31;;;;;;;4.37;2.70;;;14.20;97.30;;;;;;4899980;29;20548;-75
2022/10/03 03:08:59;;;;;;;3.43;2.90;;;14.20;97.30;;;;;;4915615;29;20455;-75
2022/10/03 03:12:10;;;;;;;4.70;2.80;;;14.20;97.30;;;;;;4915638;29;20460;-75
2022/10/03 03:15:07;;;;;;;4.00;3.03;;;14.20;97.30;;;;;;4914766;29;20463;-75
2022/10/03 03:17:58;;;;;;;4.10;2.63;;;14.20;97.30;;;;;;4900018;29;20425;-74
2022/10/03 03:20:51;;;;;;;10.27;3.10;;;14.20;97.20;;;;;;4914849;29;20507;-75
2022/10/03 03:23:29;;;;;;;7.20;2.60;;;14.20;97.30;;;;;;4915237;29;20436;-75
2022/10/03 03:26:21;;;;;;;6.90;2.87;;;14.20;97.30;;;;;;4915941;29;20499;-75
2022/10/03 03:29:00;;;;;;;4.50;2.67;;;14.20;97.30;;;;;;4914919;29;20848;-75
2022/10/03 03:31:40;;;;;;;4.17;2.60;;;14.10;97.20;;;;;;4914771;29;20578;-75
2022/10/03 03:34:17;;;;;;;7.20;2.83;;;14.10;97.20;;;;;;4881852;29;20450;-75
2022/10/03 03:37:02;;;;;;;5.20;2.63;;;14.10;97.20;;;;;;4916208;29;20456;-75
2022/10/03 03:40:18;;;;;;;7.63;3.50;;;14.10;97.20;;;;;;4914531;29;20503;-75
2022/10/03 03:43:15;;;;;;;4.53;2.50;;;14.10;97.20;;;;;;4894786;29;20904;-75
2022/10/03 03:45:56;;;;;;;5.97;2.80;;;14.00;97.20;;;;;;4906842;29;20450;-75
2022/10/03 03:48:52;;;;;;;4.47;2.87;;;14.10;97.20;;;;;;4899206;29;20516;-74
2022/10/03 03:51:27;;;;;;;4.60;2.47;;;14.10;97.30;;;;;;4914435;29;20463;-75
2022/10/03 03:54:15;;;;;;;4.93;3.30;;;14.00;97.20;;;;;;4915157;29;20453;-74
2022/10/03 03:57:00;;;;;;;3.53;3.23;;;14.00;97.20;;;;;;4914685;29;20471;-75
2022/10/03 03:59:29;;;;;;;3.10;2.47;;;14.00;97.20;;;;;;4915936;29;20447;-75
2022/10/03 04:02:05;;;;;;;4.53;2.23;;;14.00;97.20;;;;;;4898304;29;20440;-75
2022/10/03 04:05:01;;;;;;;3.97;2.50;;;14.00;97.20;;;;;;4914703;29;20531;-74
2022/10/03 04:07:54;;;;;;;4.07;2.73;;;14.00;97.20;;;;;;4915698;29;20535;-75
2022/10/03 04:10:53;;;;;;;4.97;2.60;;;14.00;97.20;;;;;;4898299;29;20472;-74
2022/10/03 04:13:21;;;;;;;5.80;2.37;;;14.00;97.20;;;;;;4924477;29;20435;-75
2022/10/03 04:16:12;;;;;;;4.40;2.47;;;14.00;97.20;;;;;;4930457;29;20528;-75
2022/10/03 04:18:58;;;;;;;3.30;2.67;;;14.00;97.20;;;;;;4915535;29;20471;-75
2022/10/03 04:21:39;;;;;;;4.93;2.47;;;14.00;97.20;;;;;;4915362;29;20836;-75
2022/10/03 04:24:28;;;;;;;6.20;2.80;;;13.90;97.20;;;;;;4897822;29;20496;-75
2022/10/03 04:27:22;;;;;;;9.73;2.20;;;13.90;97.50;;;;;;4898695;29;20465;-75
2022/10/03 04:30:37;;;;;;;3.87;2.50;;;13.90;97.20;;;;;;4913973;29;20456;-75
2022/10/03 04:33:35;;;;;;;4.70;3.13;;;13.90;97.20;;;;;;4886624;29;20439;-75
2022/10/03 04:36:19;;;;;;;6.73;2.40;;;13.90;97.30;;;;;;4914269;29;20448;-75
2022/10/03 04:39:19;;;;;;;4.73;2.33;;;13.90;97.30;;;;;;4914993;29;20969;-75
2022/10/03 04:41:56;;;;;;;4.40;2.43;;;13.90;97.30;;;;;;4921837;29;21153;-75
2022/10/03 04:44:56;;;;;;;3.90;2.43;;;13.90;97.30;;;;;;4884348;29;20793;-75
2022/10/03 04:47:29;;;;;;;4.37;2.53;;;13.90;97.30;;;;;;4917721;29;20455;-75
2022/10/03 04:50:27;;;;;;;4.67;2.57;;;13.90;97.40;;;;;;4902797;29;20467;-75
2022/10/03 04:53:12;;;;;;;3.43;2.60;;;13.80;97.40;;;;;;4919485;29;20471;-75
2022/10/03 04:55:45;;;;;;;8.50;2.57;;;13.90;97.80;;;;;;4918375;29;20463;-75
2022/10/03 04:58:14;;;;;;;5.53;3.20;;;13.80;97.40;;;;;;4918137;29;20461;-75
2022/10/03 05:00:58;;;;;;;5.63;2.80;;;13.80;97.40;;;;;;4933893;29;20926;-75
2022/10/03 05:04:22;;;;;;;3.63;2.60;;;13.80;97.40;;;;;;4919353;29;20497;-75
2022/10/03 05:07:12;;;;;;;6.20;2.50;;;13.80;97.40;;;;;;4914158;29;20973;-75
2022/10/03 05:09:51;;;;;;;4.90;2.77;;;13.80;97.40;;;;;;4914615;29;20884;-75
2022/10/03 05:12:40;;;;;;;5.73;3.23;;;13.80;97.50;;;;;;4914886;29;20447;-75
2022/10/03 05:15:28;;;;;;;5.73;2.60;;;13.80;97.50;;;;;;4898900;29;20493;-75
2022/10/03 05:18:33;;;;;;;6.33;2.90;;;13.80;97.50;;;;;;4899141;29;20449;-75
2022/10/03 05:21:27;;;;;;;6.77;3.07;;;13.80;97.60;;;;;;4900324;29;20500;-75
2022/10/03 05:24:08;;;;;;;7.03;3.10;;;13.80;97.60;;;;;;4901766;29;20482;-75
2022/10/03 05:27:00;;;;;;;6.30;2.47;;;13.70;97.60;;;;;;4918429;29;20483;-75
2022/10/03 05:30:07;;;;;;;5.13;2.63;;;13.80;97.60;;;;;;4916869;29;20976;-75
2022/10/03 05:33:01;;;;;;;4.37;2.50;;;13.70;97.60;;;;;;4918252;29;20491;-75
2022/10/03 05:36:07;;;;;;;4.73;3.20;;;13.70;97.60;;;;;;4917570;29;20456;-75
2022/10/03 05:39:00;;;;;;;6.20;3.10;;;13.70;97.70;;;;;;4917196;29;20513;-75
2022/10/03 05:41:37;;;;;;;4.70;3.10;;;13.70;97.70;;;;;;4932849;29;20427;-75
2022/10/03 05:44:06;;;;;;;4.63;3.00;;;13.70;97.70;;;;;;4919021;29;20448;-70
2022/10/03 05:46:47;;;;;;;4.40;3.03;;;13.70;97.80;;;;;;4918882;29;20988;-71
2022/10/03 05:49:32;;;;;;;3.57;2.40;;;13.70;97.80;;;;;;4902157;29;20456;-70
2022/10/03 05:52:16;;;;;;;5.13;2.50;;;13.70;97.80;;;;;;4917245;29;20930;-70
2022/10/03 05:55:12;;;;;;;5.20;2.80;;;13.70;97.80;;;;;;4915544;29;20806;-70
2022/10/03 05:58:14;;;;;;;6.47;3.63;;;13.70;97.80;;;;;;4911923;29;20490;-70
2022/10/03 06:01:14;;;;;;;4.80;2.80;;;13.70;97.90;;;;;;4922407;29;20522;-70
2022/10/03 06:03:59;;;;;;;3.50;2.50;;;13.70;97.90;;;;;;4916253;29;20929;-70
2022/10/03 06:06:52;;;;;;;6.10;2.93;;;13.70;97.90;;;;;;4915850;29;21001;-70
2022/10/03 06:10:03;;;;;;;4.40;2.67;;;13.70;97.90;;;;;;4899683;29;20914;-69
2022/10/03 06:12:42;;;;;;;4.90;3.07;;;13.70;98.00;;;;;;4916211;29;20921;-70
2022/10/03 06:15:11;;;;;;;7.20;3.20;;;13.70;98.00;;;;;;4910756;29;20843;-70
2022/10/03 06:17:49;;;;;;;7.30;2.90;;;13.70;98.00;;;;;;4917328;29;20409;-70
2022/10/03 06:20:37;;;;;;;3.10;2.17;;;13.70;98.10;;;;;;4916415;29;20874;-70
2022/10/03 06:23:29;;;;;;;4.93;2.33;;;13.70;98.10;;;;;;4900562;29;20436;-70
2022/10/03 06:26:21;;;;;;;4.30;2.63;;;13.70;98.10;;;;;;4916441;29;20523;-70
2022/10/03 06:29:16;;;;;;;4.67;2.80;;;13.70;98.10;;;;;;4917346;29;20992;-70
2022/10/03 06:32:16;;;;;;;4.80;2.97;;;13.70;98.10;;;;;;4916278;29;20475;-70
2022/10/03 06:34:51;;;;;;;5.63;2.50;;;13.70;98.10;;;;;;4932193;29;20471;-70
2022/10/03 06:37:35;;;;;;;7.73;3.13;;;13.60;98.10;;;;;;4916226;29;20456;-70
2022/10/03 06:40:22;;;;;;;3.60;2.57;;;13.60;98.10;;;;;;4917337;29;20458;-70
2022/10/03 06:42:54;;;;;;;4.60;2.73;;;13.60;98.20;;;;;;4917160;29;20928;-70
2022/10/03 06:45:29;;;;;;;4.07;2.70;;;13.70;98.20;;;;;;4916408;29;20439;-70
2022/10/03 06:48:20;;;;;;;3.40;2.77;;;13.70;98.30;;;;;;4900764;29;20785;-70
2022/10/03 06:50:59;;;;;;;5.23;2.27;;;13.60;98.20;;;;;;4917152;29;21050;-70
2022/10/03 06:53:30;;;;;;;4.70;2.77;;;13.60;98.30;;;;;;4916040;29;20425;-70
2022/10/03 06:55:59;;;;;;;3.50;2.90;;;13.60;98.30;;;;;;4916063;29;20464;-69
2022/10/03 06:58:41;;;;;;;6.23;2.43;;;13.60;98.30;;;;;;4913658;29;20546;-70
2022/10/03 07:01:44;;;;;;;8.17;2.73;;;13.60;98.30;;;;;;4931815;29;20540;-70
2022/10/03 07:04:35;;;;;;;4.03;2.57;;;13.60;98.30;;;;;;4916552;29;20808;-70
2022/10/03 07:07:12;;;;;;;4.70;2.83;;;13.60;98.30;;;;;;4931057;29;20888;-71
2022/10/03 07:09:37;;;;;;;7.07;3.10;;;13.60;98.30;;;;;;4914800;29;20433;-70
2022/10/03 07:15:38;;;;;;;3.80;3.10;;;13.60;98.40;;;;;;4923401;29;20844;-73
2022/10/03 07:18:22;;;;;;;4.77;2.80;;;13.60;98.40;;;;;;4895721;29;20921;-73
2022/10/03 07:21:16;;;;;;;3.77;2.73;;;13.60;98.40;;;;;;4895624;29;20459;-72
2022/10/03 07:24:11;;;;;;;5.77;2.63;;;13.60;98.40;;;;;;4912019;29;20464;-70
2022/10/03 07:26:44;;;;;;;3.90;2.70;;;13.70;98.50;;;;;;4926616;29;20453;-70
2022/10/03 07:29:37;;;;;;;3.40;2.60;;;13.60;98.40;;;;;;4897298;29;20445;-70
2022/10/03 07:32:22;;;;;;;5.17;2.60;;;13.60;98.40;;;;;;4882130;29;20575;-72
2022/10/03 07:35:10;;;;;;;5.73;2.67;;;13.70;98.50;;;;;;4898494;29;20433;-73
2022/10/03 07:40:35;;;;;;;3.50;2.60;;;13.60;98.40;;;;;;4896822;29;20457;-72
2022/10/03 07:43:14;;;;;;;5.07;2.80;;;13.70;98.50;;;;;;4878226;29;20425;-71
2022/10/03 07:45:46;;;;;;;4.87;2.77;;;13.70;98.50;;;;;;4915953;29;20442;-70
2022/10/03 07:48:41;;;;;;;5.27;2.80;;;13.70;98.60;;;;;;4899628;29;20435;-72
2022/10/03 07:51:17;;;;;;;4.00;2.60;;;13.70;98.60;;;;;;4913574;29;20470;-73
2022/10/03 07:53:55;;;;;;;8.87;2.97;;;13.70;98.60;;;;;;4889695;29;20521;-71
2022/10/03 07:56:35;;;;;;;7.53;2.53;;;13.70;98.70;;;;;;4892815;29;20456;-71
2022/10/03 07:59:28;;;;;;;5.10;3.10;;;13.70;98.70;;;;;;4915404;29;20781;-70
2022/10/03 08:02:32;;;;;;;5.90;3.53;;;13.70;98.70;;;;;;4895838;29;20488;-70
2022/10/03 08:05:24;;;;;;;7.57;2.90;;;13.70;98.70;;;;;;4913420;29;20429;-70
2022/10/03 08:07:59;;;;;;;4.80;2.50;;;13.70;98.70;;;;;;4916568;29;20459;-70
2022/10/03 08:11:23;;;;;;;8.33;3.03;;;13.70;98.80;;;;;;4915354;29;20458;-70
2022/10/03 08:13:53;;;;;;;3.90;2.93;;;13.70;98.80;;;;;;4898506;29;20498;-72
2022/10/03 08:17:27;;;;;;;3.40;2.80;;;13.70;98.90;;;;;;4911419;29;20447;-70
2022/10/03 08:20:11;;;;;;;4.60;2.60;;;13.70;98.90;;;;;;4899558;29;20435;-69
2022/10/03 08:23:04;;;;;;;9.20;3.47;;;13.70;98.90;;;;;;4915210;29;20422;-69
2022/10/03 08:26:07;;;;;;;8.47;3.60;;;13.70;98.90;;;;;;4913245;29;20454;-69
2022/10/03 08:28:49;;;;;;;5.50;2.90;;;13.70;98.90;;;;;;4914384;29;20508;-69
2022/10/03 08:31:44;;;;;;;6.40;2.90;;;13.70;98.90;;;;;;4895911;29;20829;-69
2022/10/03 08:34:56;;;;;;;8.00;3.60;;;13.70;98.90;;;;;;4899158;29;20448;-69
2022/10/03 08:37:49;;;;;;;6.07;3.43;;;13.70;99.00;;;;;;4913245;29;20470;-69
2022/10/03 08:40:36;;;;;;;7.73;3.10;;;13.70;99.10;;;;;;4913196;29;20833;-69
2022/10/03 08:43:23;;;;;;;3.60;2.87;;;13.70;99.20;;;;;;4929901;29;20666;-69
2022/10/03 08:46:14;;;;;;;5.10;3.40;;;13.80;99.30;;;;;;4898799;29;20499;-69
2022/10/03 08:48:58;;;;;;;4.60;3.07;;;13.80;99.30;;;;;;4911015;29;20980;-69
2022/10/03 08:51:45;;;;;;;6.33;3.43;;;13.80;99.30;;;;;;4891317;29;20986;-69
2022/10/03 08:54:50;;;;;;;7.53;4.00;;;13.80;99.40;;;;;;4878964;29;20494;-69
2022/10/03 08:57:52;;;;;;;9.00;3.97;;;13.80;99.50;;;;;;4926515;29;20463;-70
2022/10/03 09:00:40;;;;;;;7.50;3.10;;;13.80;99.60;;;;;;4914183;29;20501;-69
2022/10/03 09:03:44;;;;;;;9.73;3.97;;;13.80;99.70;;;;;;4897549;29;20423;-69
2022/10/03 09:06:37;;;;;;;5.57;3.47;;;13.90;99.90;;;;;;4925650;29;20461;-69
2022/10/03 09:09:16;;;;;;;9.13;3.53;;;13.90;99.90;;;;;;4889536;29;20449;-69
2022/10/03 09:12:11;;;;;;;5.33;3.37;;;13.90;99.90;;;;;;4911982;29;20475;-69
2022/10/03 09:14:46;;;;;;;6.10;3.03;;;13.90;99.90;;;;;;4898848;29;20499;-69
2022/10/03 09:17:44;;;;;;;8.77;3.70;;;13.90;99.90;;;;;;4870746;29;20459;-69
2022/10/03 09:20:41;;;;;;;12.17;3.80;;;14.00;99.90;;;;;;4898368;29;20483;-69
2022/10/03 09:23:23;;;;;;;9.83;4.43;;;14.00;99.90;;;;;;4866615;29;21001;-70
2022/10/03 09:26:13;;;;;;;10.90;4.07;;;14.00;99.90;;;;;;4882050;29;21078;-69
2022/10/03 09:28:52;;;;;;;5.13;3.00;;;14.00;99.90;;;;;;4904283;29;20432;-69
2022/10/03 09:31:27;;;;;;;11.77;3.70;;;14.00;99.90;;;;;;4901632;29;20471;-69
2022/10/03 09:34:32;;;;;;;6.37;3.60;;;14.00;99.90;;;;;;4896066;29;20507;-70
2022/10/03 09:37:24;;;;;;;7.23;3.10;;;14.00;99.90;;;;;;4895062;29;20495;-70
2022/10/03 09:40:36;;;;;;;9.10;3.70;;;14.10;99.90;;;;;;4903682;29;20429;-70
2022/10/03 09:43:48;;;;;;;8.57;3.67;;;14.10;99.90;;;;;;4917779;29;20466;-70
2022/10/03 09:46:36;;;;;;;7.77;3.47;;;14.10;99.90;;;;;;4911775;29;20458;-70
2022/10/03 09:49:43;;;;;;;5.93;3.40;;;14.20;99.90;;;;;;4927706;29;20939;-70
2022/10/03 09:52:47;;;;;;;8.70;2.80;;;14.20;99.90;;;;;;4899982;29;20868;-70
2022/10/03 09:55:18;;;;;;;6.33;3.10;;;14.20;99.90;;;;;;4900477;29;20423;-70
2022/10/03 09:58:22;;;;;;;6.53;3.07;;;14.30;99.90;;;;;;4915772;29;20958;-70
2022/10/03 10:01:08;;;;;;;5.40;3.20;;;14.30;99.90;;;;;;4859396;29;20486;-70
2022/10/03 10:04:02;;;;;;;5.57;2.53;;;14.30;99.90;;;;;;4912479;29;20450;-70
2022/10/03 10:06:31;;;;;;;3.20;2.53;;;14.40;99.90;;;;;;4900559;29;20455;-69
2022/10/03 10:09:17;;;;;;;9.53;3.30;;;14.40;99.90;;;;;;4916201;28;20409;-71
2022/10/03 10:12:06;;;;;;;4.97;3.03;;;14.40;99.80;;;;;;4915523;29;20537;-70
2022/10/03 10:14:58;;;;;;;8.10;3.00;;;14.50;99.90;;;;;;4900140;29;20567;-70
2022/10/03 10:17:55;;;;;;;8.37;3.50;;;14.50;99.90;;;;;;4910510;29;20460;-70
2022/10/03 10:20:50;;;;;;;5.70;2.60;;;14.50;99.90;;;;;;4898702;29;20470;-69
2022/10/03 10:23:44;;;;;;;5.30;2.80;;;14.50;99.90;;;;;;4910077;29;20809;-71
2022/10/03 10:26:48;;;;;;;7.07;2.63;;;14.60;99.80;;;;;;4916169;29;20971;-70
2022/10/03 10:29:33;;;;;;;6.70;2.90;;;14.60;99.80;;;;;;4911874;29;20566;-70
2022/10/03 10:32:32;;;;;;;6.80;2.70;;;14.60;99.60;;;;;;4893106;29;20555;-69
2022/10/03 10:35:14;;;;;;;6.63;2.53;;;14.70;99.60;;;;;;4899660;29;20489;-69
2022/10/03 10:37:55;;;;;;;8.03;2.67;;;14.70;99.60;;;;;;4898133;29;20458;-69
2022/10/03 10:40:42;;;;;;;7.53;3.30;;;14.70;99.60;;;;;;4897808;29;20607;-70
2022/10/03 10:44:01;;;;;;;7.40;2.97;;;14.80;99.70;;;;;;4912661;29;20537;-72
2022/10/03 10:46:44;;;;;;;6.53;2.47;;;14.80;99.70;;;;;;4911632;29;20487;-71
2022/10/03 10:49:37;;;;;;;4.53;2.80;;;14.80;99.90;;;;;;4900705;29;20463;-71
2022/10/03 10:52:42;;;;;;;5.67;2.20;;;14.90;99.60;;;;;;4916094;29;21148;-71
2022/10/03 10:55:39;;;;;;;10.90;3.73;;;14.90;99.50;;;;;;4898255;29;20456;-71
2022/10/03 10:58:25;;;;;;;3.63;2.40;;;14.90;99.50;;;;;;4898731;29;20409;-70
2022/10/03 11:00:54;;;;;;;4.90;2.10;;;14.90;99.40;;;;;;4904269;29;20540;-73
2022/10/03 11:04:02;;;;;;;5.57;2.70;;;14.90;99.30;;;;;;4916387;29;20420;-71
2022/10/03 11:06:58;;;;;;;5.90;2.60;;;15.00;99.20;;;;;;4912829;29;20453;-71
2022/10/03 11:09:46;;;;;;;7.77;2.80;;;15.00;99.10;;;;;;4914208;29;20500;-71
2022/10/03 11:12:36;;;;;;;7.43;3.60;;;15.10;99.20;;;;;;4895677;29;20462;-70
2022/10/03 11:15:23;;;;;;;8.37;3.10;;;15.10;99.20;;;;;;4912798;29;20413;-71
2022/10/03 11:18:30;;;;;;;6.13;2.50;;;15.10;99.20;;;;;;4915480;29;20452;-70
2022/10/03 11:21:11;;;;;;;3.30;2.50;;;15.20;99.10;;;;;;4904700;29;20985;-71
2022/10/03 11:23:58;;;;;;;5.40;3.10;;;15.10;99.00;;;;;;4898658;29;20473;-71
2022/10/03 11:27:02;;;;;;;6.50;2.90;;;15.20;99.00;;;;;;4875766;29;20814;-71
2022/10/03 11:29:39;;;;;;;5.63;2.70;;;15.20;99.00;;;;;;4879443;29;20433;-71
2022/10/03 11:32:27;;;;;;;7.07;2.70;;;15.20;99.00;;;;;;4897384;29;20476;-71
2022/10/03 11:35:23;;;;;;;6.70;2.43;;;15.30;98.90;;;;;;4919223;29;21608;-71
2022/10/03 11:38:13;;;;;;;4.23;2.67;;;15.30;98.90;;;;;;4897646;29;20401;-71
2022/10/03 11:40:55;;;;;;;9.00;2.70;;;15.30;98.80;;;;;;4913794;29;20460;-71
2022/10/03 11:43:58;;;;;;;3.70;2.77;;;15.30;98.80;;;;;;4899754;29;20495;-71
2022/10/03 11:46:50;;;;;;;4.97;2.10;;;15.30;98.80;;;;;;4915751;29;20798;-71
2022/10/03 11:49:22;;;;;;;4.70;1.80;;;15.40;98.80;;;;;;4911175;29;20853;-71
2022/10/03 11:52:17;;;;;;;7.53;2.33;;;15.40;98.80;;;;;;4896658;29;20551;-71
2022/10/03 11:54:47;;;;;;;4.30;2.43;;;15.40;98.70;;;;;;4903768;29;20436;-71
2022/10/03 11:57:27;;;;;;;3.80;2.43;;;15.40;98.70;;;;;;4915891;29;20440;-71
2022/10/03 12:00:18;;;;;;;3.17;2.20;;;15.40;98.70;;;;;;4890866;29;20886;-71
2022/10/03 12:03:05;;;;;;;7.90;2.67;;;15.50;98.70;;;;;;4896619;29;20429;-70
2022/10/03 12:09:03;;;;;;;5.73;2.80;;;15.50;98.70;;;;;;4893348;29;20451;-71
2022/10/03 12:11:36;;;;;;;6.83;2.27;;;15.60;98.60;;;;;;4912068;29;20479;-71
2022/10/03 12:14:06;;;;;;;2.63;1.97;;;15.50;98.50;;;;;;4915260;29;20452;-71
2022/10/03 12:16:56;;;;;;;3.13;1.90;;;15.60;98.50;;;;;;4915921;29;20819;-72
2022/10/03 12:19:31;;;;;;;2.57;1.97;;;15.60;98.40;;;;;;4865730;29;20501;-73
2022/10/03 12:22:28;;;;;;;3.93;2.30;;;15.60;98.30;;;;;;4897990;29;20481;-70
2022/10/03 12:25:20;;;;;;;10.50;3.50;;;15.60;98.20;;;;;;4899416;29;20482;-71
2022/10/03 12:27:49;;;;;;;4.17;2.30;;;15.60;98.20;;;;;;4914594;29;20434;-71
2022/10/03 12:30:19;;;;;;;5.50;2.10;;;15.70;98.30;;;;;;4887768;29;20535;-71
2022/10/03 12:33:05;;;;;;;4.53;2.10;;;15.70;98.20;;;;;;4896412;29;20429;-71
2022/10/03 12:36:02;;;;;;;3.40;2.00;;;15.70;98.20;;;;;;4896730;29;20452;-70
2022/10/03 12:38:50;;;;;;;3.63;2.50;;;15.70;98.10;;;;;;4897782;29;20453;-70
2022/10/03 12:41:21;;;;;;;7.40;3.73;;;15.70;98.00;;;;;;4879956;29;20518;-73
2022/10/03 12:44:08;;;;;;;5.90;3.00;;;15.70;98.00;;;;;;4914663;29;20421;-70
2022/10/03 12:46:58;;;;;;;4.40;2.60;;;15.70;97.90;;;;;;4913373;29;20811;-71
2022/10/03 12:49:56;;;;;;;5.30;2.27;;;15.70;97.90;;;;;;4890833;29;20429;-71
2022/10/03 12:52:34;;;;;;;6.13;2.63;;;15.80;97.90;;;;;;4909208;29;20958;-71
2022/10/03 12:55:31;;;;;;;9.20;3.10;;;15.80;98.20;;;;;;4899295;29;20540;-71
2022/10/03 12:58:21;;;;;;;7.23;3.00;;;15.80;97.90;;;;;;4906610;29;20453;-71
2022/10/03 13:01:22;;;;;;;5.33;2.80;;;15.80;97.80;;;;;;4899976;29;20438;-71
2022/10/03 13:03:56;;;;;;;5.57;3.87;;;15.90;97.80;;;;;;4884590;29;20991;-71
2022/10/03 13:06:51;;;;;;;6.70;2.97;;;15.90;97.90;;;;;;4888602;29;20449;-71
2022/10/03 13:09:36;;;;;;;7.97;2.80;;;15.90;97.90;;;;;;4898634;29;20464;-71
2022/10/03 13:12:19;;;;;;;6.10;3.30;;;15.90;97.90;;;;;;4902356;29;20537;-71
2022/10/03 13:15:23;;;;;;;7.30;3.10;;;15.90;97.90;;;;;;4901567;29;20476;-71
2022/10/03 13:18:03;;;;;;;7.10;3.40;;;16.00;97.90;;;;;;4918252;29;20420;-71
2022/10/03 13:21:08;;;;;;;5.27;2.73;;;15.90;97.80;;;;;;4918356;29;20520;-71
2022/10/03 13:23:45;;;;;;;4.20;2.40;;;16.00;97.90;;;;;;4899494;29;20440;-71
2022/10/03 13:26:21;;;;;;;5.03;2.80;;;16.00;97.90;;;;;;4901831;29;20453;-71
2022/10/03 13:29:11;;;;;;;4.80;2.53;;;16.00;97.90;;;;;;4899487;29;20419;-71
2022/10/03 13:32:05;;;;;;;6.27;3.00;;;16.10;97.90;;;;;;4899294;29;20510;-71
2022/10/03 13:34:58;;;;;;;5.63;2.33;;;16.10;97.90;;;;;;4899711;29;20465;-71
2022/10/03 13:37:49;;;;;;;9.67;3.27;;;16.10;97.80;;;;;;4905184;29;20499;-71
2022/10/03 13:40:18;;;;;;;3.80;2.40;;;16.10;97.70;;;;;;4904397;29;20422;-71
2022/10/03 13:42:52;;;;;;;8.20;3.00;;;16.20;97.70;;;;;;4899597;29;20481;-71
2022/10/03 13:45:26;;;;;;;7.53;2.37;;;16.20;97.70;;;;;;4911688;29;20543;-71
2022/10/03 13:48:04;;;;;;;8.70;3.20;;;16.20;97.70;;;;;;4888174;29;20420;-71
2022/10/03 13:51:01;;;;;;;8.60;2.33;;;16.20;97.60;;;;;;4914716;29;20991;-71
2022/10/03 13:53:45;;;;;;;3.57;2.17;;;16.30;97.60;;;;;;4911739;29;20460;-71
2022/10/03 13:56:30;;;;;;;5.50;2.90;;;16.20;97.40;;;;;;4903556;29;20590;-71
2022/10/03 13:59:10;;;;;;;5.23;2.33;;;16.30;97.30;;;;;;4898843;29;20979;-71
2022/10/03 14:02:11;;;;;;;3.27;1.70;;;16.30;97.20;;;;;;4901849;29;20490;-71
2022/10/03 14:05:25;;;;;;;3.73;2.17;;;16.30;97.10;;;;;;4898168;29;20455;-71
2022/10/03 14:08:38;;;;;;;4.07;2.27;;;16.30;97.10;;;;;;4909248;29;20446;-71
2022/10/03 14:11:39;;;;;;;4.57;2.00;;;16.30;97.00;;;;;;4883025;29;20573;-71
2022/10/03 14:14:23;;;;;;;4.60;1.83;;;16.30;97.00;;;;;;4900407;29;20429;-71
2022/10/03 14:17:09;;;;;;;3.10;2.20;;;16.30;96.90;;;;;;4918202;29;20537;-71
2022/10/03 14:19:57;;;;;;;4.07;2.77;;;16.40;96.90;;;;;;4910631;29;20525;-71
2022/10/03 14:22:52;;;;;;;3.90;1.97;;;16.30;96.80;;;;;;4905334;29;20457;-71
2022/10/03 14:25:37;;;;;;;3.20;2.00;;;16.40;96.80;;;;;;4906964;29;20426;-71
2022/10/03 14:28:36;;;;;;;3.03;2.13;;;16.40;96.90;;;;;;4898920;29;20521;-71
2022/10/03 14:31:22;;;;;;;5.00;2.20;;;16.40;96.90;;;;;;4886260;29;20508;-71
2022/10/03 14:33:57;;;;;;;4.00;2.20;;;16.40;97.00;;;;;;4898450;29;20852;-70
2022/10/03 14:36:47;;;;;;;3.13;1.67;;;16.40;96.90;;;;;;4917019;29;20467;-71
2022/10/03 14:39:47;;;;;;;3.57;1.80;;;16.40;96.90;;;;;;4916082;29;20445;-71
2022/10/03 14:42:18;;;;;;;2.70;1.87;;;16.40;96.90;;;;;;4923548;29;20505;-71
2022/10/03 14:44:57;;;;;;;4.40;2.20;;;16.40;96.90;;;;;;4901529;29;20935;-71